createdAt,value
2022-11-01T00:00:04.876Z,59.55
2022-11-01T00:05:28.307Z,59.19
2022-11-01T00:10:31.743Z,59.25
2022-11-01T00:15:35.102Z,59.01
2022-11-01T00:20:38.453Z,59.21
2022-11-01T00:25:41.920Z,59.04
2022-11-01T00:30:45.443Z,59.05
2022-11-01T00:35:48.824Z,59.00
2022-11-01T00:40:52.238Z,58.85
2022-11-01T00:45:55.741Z,58.85
2022-11-01T00:50:59.178Z,58.82
2022-11-01T00:56:02.605Z,58.88
2022-11-01T01:01:06.098Z,58.73
2022-11-01T01:06:09.638Z,58.75
2022-11-01T01:11:13.009Z,58.60
2022-11-01T01:16:16.429Z,58.50
2022-11-01T01:21:20.194Z,58.48
2022-11-01T01:26:23.566Z,58.33
2022-11-01T01:31:26.981Z,58.38
2022-11-01T01:36:30.436Z,58.46
2022-11-01T01:41:51.916Z,58.39
2022-11-01T01:46:55.269Z,58.40
2022-11-01T01:51:58.645Z,58.31
2022-11-01T01:57:01.988Z,58.32
2022-11-01T02:02:05.413Z,58.43
2022-11-01T02:07:08.829Z,58.36
2022-11-01T02:12:12.277Z,58.41
2022-11-01T02:17:15.689Z,58.31
2022-11-01T02:22:19.216Z,58.34
2022-11-01T02:27:22.711Z,58.33
2022-11-01T02:32:26.101Z,58.15
2022-11-01T02:37:29.469Z,58.21
2022-11-01T02:42:32.862Z,58.15
2022-11-01T02:47:36.250Z,58.22
2022-11-01T02:52:39.663Z,58.16
2022-11-01T02:57:43.029Z,58.20
2022-11-01T03:02:46.416Z,58.21
2022-11-01T03:07:49.794Z,58.31
2022-11-01T03:12:53.348Z,58.45
2022-11-01T03:17:56.843Z,58.53
2022-11-01T03:23:00.457Z,58.78
2022-11-01T03:28:04.105Z,58.83
2022-11-01T03:33:07.553Z,58.82
2022-11-01T03:38:10.989Z,58.80
2022-11-01T03:43:14.410Z,58.80
2022-11-01T03:48:17.852Z,59.00
2022-11-01T03:53:21.227Z,59.13
2022-11-01T03:58:24.609Z,59.25
2022-11-01T04:03:27.965Z,59.48
2022-11-01T04:08:31.581Z,59.66
2022-11-01T04:13:34.949Z,59.90
2022-11-01T04:18:55.892Z,60.10
2022-11-01T04:23:59.363Z,60.22
2022-11-01T04:29:02.727Z,60.19
2022-11-01T04:34:06.101Z,60.35
2022-11-01T04:39:09.477Z,60.39
2022-11-01T04:44:12.885Z,60.62
2022-11-01T04:49:16.233Z,60.63
2022-11-01T04:54:19.656Z,60.66
2022-11-01T04:59:23.093Z,60.75
2022-11-01T05:04:26.492Z,60.94
2022-11-01T05:09:31.168Z,60.92
2022-11-01T05:14:34.799Z,60.94
2022-11-01T05:19:38.240Z,61.01
2022-11-01T05:29:46.000Z,61.18
2022-11-01T05:34:50.624Z,61.25
2022-11-01T05:39:54.025Z,61.20
2022-11-01T05:44:57.404Z,61.25
2022-11-01T05:50:00.784Z,61.35
2022-11-01T05:55:04.159Z,61.45
2022-11-01T06:00:07.521Z,61.50
2022-11-01T06:05:11.318Z,61.55
2022-11-01T06:10:14.801Z,61.68
2022-11-01T06:15:18.254Z,61.69
2022-11-01T06:20:21.702Z,61.79
2022-11-01T06:25:25.056Z,61.77
2022-11-01T06:30:28.486Z,61.90
2022-11-01T06:35:31.943Z,61.85
2022-11-01T06:40:35.572Z,61.91
2022-11-01T06:45:39.066Z,61.91
2022-11-01T06:50:42.444Z,61.88
2022-11-01T06:55:45.917Z,61.89
2022-11-01T07:00:49.419Z,61.97
2022-11-01T07:05:52.978Z,61.92
2022-11-01T07:11:04.820Z,62.05
2022-11-01T07:16:08.233Z,62.02
2022-11-01T07:21:11.711Z,61.83
2022-11-01T07:26:15.112Z,61.74
2022-11-01T07:31:18.965Z,61.93
2022-11-01T07:36:22.405Z,62.16
2022-11-01T07:41:25.867Z,62.34
2022-11-01T07:46:30.546Z,62.31
2022-11-01T07:51:34.223Z,62.23
2022-11-01T07:56:37.706Z,62.12
2022-11-01T08:01:41.155Z,62.09
2022-11-01T08:06:46.947Z,60.54
2022-11-01T08:11:51.925Z,59.22
2022-11-01T08:17:00.744Z,59.85
2022-11-01T08:22:04.312Z,60.09
2022-11-01T08:27:07.884Z,60.93
2022-11-01T08:32:11.319Z,61.58
2022-11-01T08:37:14.741Z,61.66
2022-11-01T08:42:18.170Z,61.72
2022-11-01T08:47:22.336Z,61.72
2022-11-01T08:52:25.746Z,61.15
2022-11-01T08:57:29.121Z,60.07
2022-11-01T09:02:32.541Z,60.89
2022-11-01T09:07:36.049Z,61.24
2022-11-01T09:17:43.844Z,61.97
2022-11-01T09:22:47.312Z,61.95
2022-11-01T09:27:50.829Z,61.99
2022-11-01T09:32:54.299Z,62.10
2022-11-01T09:37:57.775Z,62.22
2022-11-01T09:43:02.087Z,62.27
2022-11-01T09:48:05.991Z,62.47
2022-11-01T09:53:09.560Z,62.32
2022-11-01T09:58:12.912Z,62.33
2022-11-01T10:03:16.763Z,62.22
2022-11-01T10:08:20.129Z,62.05
2022-11-01T10:13:23.556Z,61.70
2022-11-01T10:18:27.358Z,61.35
2022-11-01T10:23:30.754Z,61.20
2022-11-01T10:28:34.161Z,60.87
2022-11-01T10:33:37.544Z,60.52
2022-11-01T10:39:10.822Z,59.99
2022-11-01T10:44:04.333Z,59.99
2022-11-01T10:49:07.746Z,59.84
2022-11-01T10:54:11.204Z,59.74
2022-11-01T10:59:14.580Z,59.81
2022-11-01T11:04:17.969Z,60.41
2022-11-01T11:09:21.413Z,61.11
2022-11-01T11:14:24.764Z,60.70
2022-11-01T11:19:28.257Z,60.79
2022-11-01T11:24:31.645Z,60.88
2022-11-01T11:29:35.355Z,60.95
2022-11-01T11:34:39.229Z,61.29
2022-11-01T11:39:42.631Z,61.23
2022-11-01T11:44:46.973Z,61.28
2022-11-01T11:49:54.049Z,61.36
2022-11-01T11:54:57.654Z,61.36
2022-11-01T12:00:01.026Z,61.57
2022-11-01T12:05:04.689Z,61.38
2022-11-01T12:10:08.124Z,61.66
2022-11-01T12:15:11.521Z,61.80
2022-11-01T12:20:15.025Z,61.80
2022-11-01T12:25:19.128Z,61.77
2022-11-01T12:30:22.526Z,62.17
2022-11-01T12:35:26.006Z,61.97
2022-11-01T12:40:29.388Z,62.23
2022-11-01T12:45:32.784Z,62.19
2022-11-01T12:50:49.788Z,62.28
2022-11-01T12:55:53.148Z,62.27
2022-11-01T13:00:56.688Z,62.50
2022-11-01T13:06:00.153Z,62.63
2022-11-01T13:11:03.546Z,62.20
2022-11-01T13:16:06.927Z,61.85
2022-11-01T13:21:10.786Z,62.08
2022-11-01T13:26:14.179Z,62.54
2022-11-01T13:31:17.554Z,62.59
2022-11-01T13:36:21.050Z,62.89
2022-11-01T13:41:24.746Z,62.43
2022-11-01T13:46:28.156Z,62.11
2022-11-01T13:51:31.671Z,61.94
2022-11-01T13:56:35.153Z,62.20
2022-11-01T14:01:40.712Z,62.06
2022-11-01T14:06:44.294Z,62.46
2022-11-01T14:11:47.704Z,63.39
2022-11-01T14:16:51.133Z,63.01
2022-11-01T14:21:54.670Z,62.62
2022-11-01T14:26:58.085Z,62.61
2022-11-01T14:32:02.009Z,62.51
2022-11-01T14:37:05.498Z,62.59
2022-11-01T14:42:10.772Z,62.68
2022-11-01T14:47:14.732Z,63.30
2022-11-01T14:52:18.175Z,63.04
2022-11-01T14:57:21.761Z,63.47
2022-11-01T15:02:25.622Z,63.45
2022-11-01T15:07:31.262Z,63.59
2022-11-01T15:12:34.985Z,64.40
2022-11-01T15:17:38.393Z,63.65
2022-11-01T15:22:41.845Z,64.62
2022-11-01T15:27:45.288Z,64.43
2022-11-01T15:32:48.837Z,64.52
2022-11-01T15:37:53.336Z,64.20
2022-11-01T15:42:57.122Z,64.79
2022-11-01T15:48:01.320Z,64.25
2022-11-01T15:53:04.826Z,64.59
2022-11-01T15:58:10.280Z,64.38
2022-11-01T16:03:13.709Z,64.55
2022-11-01T16:08:17.160Z,63.98
2022-11-01T16:13:20.734Z,64.15
2022-11-01T16:18:24.242Z,64.30
2022-11-01T16:23:28.471Z,64.92
2022-11-01T16:28:32.183Z,64.68
2022-11-01T16:33:35.845Z,64.61
2022-11-01T16:38:39.242Z,64.55
2022-11-01T16:43:42.952Z,64.57
2022-11-01T16:48:47.411Z,64.27
2022-11-01T16:53:50.891Z,64.22
2022-11-01T16:58:54.653Z,64.28
2022-11-01T17:03:58.112Z,64.24
2022-11-01T17:09:01.466Z,63.90
2022-11-01T17:14:04.941Z,64.03
2022-11-01T17:19:08.349Z,64.25
2022-11-01T17:24:11.766Z,64.08
2022-11-01T17:29:15.584Z,64.14
2022-11-01T17:34:19.069Z,63.97
2022-11-01T17:39:22.486Z,64.19
2022-11-01T17:44:25.877Z,63.86
2022-11-01T17:49:29.438Z,63.40
2022-11-01T17:54:33.150Z,63.59
2022-11-01T17:59:36.557Z,63.35
2022-11-01T18:04:40.016Z,63.59
2022-11-01T18:09:43.408Z,63.64
2022-11-01T18:14:46.861Z,63.63
2022-11-01T18:19:50.383Z,63.91
2022-11-01T18:24:53.806Z,64.01
2022-11-01T18:29:57.413Z,63.95
2022-11-01T18:35:00.989Z,63.81
2022-11-01T18:40:04.553Z,63.85
2022-11-01T18:45:07.973Z,63.86
2022-11-01T18:50:16.327Z,63.64
2022-11-01T18:55:20.060Z,63.69
2022-11-01T19:00:23.605Z,63.58
2022-11-01T19:05:27.067Z,63.87
2022-11-01T19:10:30.448Z,63.79
2022-11-01T19:15:33.869Z,63.71
2022-11-01T19:20:37.513Z,63.53
2022-11-01T19:25:40.951Z,63.41
2022-11-01T19:30:44.407Z,63.05
2022-11-01T19:35:47.840Z,63.06
2022-11-01T19:40:51.836Z,62.79
2022-11-01T19:45:55.488Z,63.62
2022-11-01T19:51:00.406Z,63.38
2022-11-01T19:56:04.529Z,63.49
2022-11-01T20:01:09.416Z,63.27
2022-11-01T20:06:13.456Z,63.55
2022-11-01T20:11:16.858Z,63.54
2022-11-01T20:16:20.488Z,63.23
2022-11-01T20:21:24.000Z,63.17
2022-11-01T20:26:27.406Z,62.95
2022-11-01T20:31:30.894Z,62.89
2022-11-01T20:36:34.966Z,63.21
2022-11-01T20:41:38.376Z,63.71
2022-11-01T20:46:43.663Z,64.21
2022-11-01T20:51:47.140Z,63.06
2022-11-01T20:56:50.621Z,62.95
2022-11-01T21:01:54.859Z,63.30
2022-11-01T21:06:58.465Z,63.56
2022-11-01T21:12:01.861Z,63.85
2022-11-01T21:17:05.252Z,64.08
2022-11-01T21:22:08.857Z,64.12
2022-11-01T21:27:12.261Z,64.09
2022-11-01T21:32:15.661Z,63.97
2022-11-01T21:37:19.239Z,64.06
2022-11-01T21:42:22.876Z,63.98
2022-11-01T21:47:26.714Z,63.92
2022-11-01T21:52:30.096Z,63.86
2022-11-01T21:57:33.471Z,63.84
2022-11-01T22:02:37.025Z,63.84
2022-11-01T22:07:40.574Z,63.85
2022-11-01T22:12:43.961Z,63.86
2022-11-01T22:17:47.504Z,63.86
2022-11-01T22:22:51.126Z,63.89
2022-11-01T22:27:54.535Z,63.99
2022-11-01T22:32:57.920Z,64.03
2022-11-01T22:38:03.331Z,63.88
2022-11-01T22:43:06.947Z,63.95
2022-11-01T22:48:10.566Z,63.75
2022-11-01T22:53:13.984Z,63.84
2022-11-01T22:58:17.360Z,64.03
2022-11-01T23:03:20.929Z,64.11
2022-11-01T23:08:24.641Z,63.94
2022-11-01T23:13:45.664Z,64.05
2022-11-01T23:18:49.011Z,64.07
2022-11-01T23:23:52.357Z,63.97
2022-11-01T23:28:56.352Z,64.04
2022-11-01T23:33:59.940Z,64.00
2022-11-01T23:39:03.357Z,64.06
2022-11-01T23:44:10.773Z,64.03
2022-11-01T23:49:14.181Z,64.03
2022-11-01T23:54:17.617Z,64.03
2022-11-01T23:59:21.005Z,64.07
